METAR Formatted Surface Weather Observation
Issued by NWS

Home | Current Version | Previous Version | Text Only | Print | Product List | Glossary On
Versions: 1 2 3 4 5 6 7 8 9 10 11 12 13 14 15 16 17 18 19 20 21 22
648
SAUS46 KMTR 270453
MTRBAN
METAR KBAN 270452Z AUTO 26006KT 10SM 08/M04 A3000 RMK AO2
RAB16151614161516131615161416151611B16151614161516131615161416151622B
1615161416151613161516141615164163B1616161516161614161616151616161316
161 $



USA.gov is the U.S. government's official web portal to all federal, state and local government web resources and services.